sensor_id;sensor_type;location;lat;lon;timestamp;pressure;altitude;pressure_sealevel;temperature;humidity
56928;BME280;60850;52.502;13.426;2023-03-14T00:00:06;98836.38;;;11.69;100.00
56928;BME280;60850;52.502;13.426;2023-03-14T00:02:53;98845.53;;;11.65;100.00
56928;BME280;60850;52.502;13.426;2023-03-14T00:05:21;98847.63;;;11.60;100.00
56928;BME280;60850;52.502;13.426;2023-03-14T00:07:47;98846.06;;;11.55;100.00
56928;BME280;60850;52.502;13.426;2023-03-14T00:10:15;98837.31;;;11.53;100.00
56928;BME280;60850;52.502;13.426;2023-03-14T00:12:42;98834.00;;;11.50;100.00
56928;BME280;60850;52.502;13.426;2023-03-14T00:15:11;98834.47;;;11.42;100.00
56928;BME280;60850;52.502;13.426;2023-03-14T00:17:38;98828.81;;;11.47;100.00
56928;BME280;60850;52.502;13.426;2023-03-14T00:20:07;98807.47;;;11.47;100.00
56928;BME280;60850;52.502;13.426;2023-03-14T00:22:35;98796.91;;;11.45;100.00
56928;BME280;60850;52.502;13.426;2023-03-14T00:25:03;98798.03;;;11.41;100.00
56928;BME280;60850;52.502;13.426;2023-03-14T00:27:30;98799.19;;;11.37;100.00
56928;BME280;60850;52.502;13.426;2023-03-14T00:29:57;98784.66;;;11.27;100.00
56928;BME280;60850;52.502;13.426;2023-03-14T00:32:25;98783.91;;;11.25;100.00
56928;BME280;60850;52.502;13.426;2023-03-14T00:34:52;98766.16;;;11.10;100.00
56928;BME280;60850;52.502;13.426;2023-03-14T00:37:19;98776.47;;;11.16;100.00
56928;BME280;60850;52.502;13.426;2023-03-14T00:39:46;98768.63;;;11.13;100.00
56928;BME280;60850;52.502;13.426;2023-03-14T00:42:13;98759.03;;;11.10;100.00
56928;BME280;60850;52.502;13.426;2023-03-14T00:44:40;98764.81;;;11.03;100.00
56928;BME280;60850;52.502;13.426;2023-03-14T00:47:07;98776.25;;;11.05;100.00
56928;BME280;60850;52.502;13.426;2023-03-14T00:49:35;98779.50;;;11.10;100.00
56928;BME280;60850;52.502;13.426;2023-03-14T00:52:03;98764.81;;;11.03;100.00
56928;BME280;60850;52.502;13.426;2023-03-14T00:54:30;98761.56;;;10.97;100.00
56928;BME280;60850;52.502;13.426;2023-03-14T00:56:57;98759.75;;;10.98;100.00
56928;BME280;60850;52.502;13.426;2023-03-14T00:59:24;98746.53;;;10.96;100.00
56928;BME280;60850;52.502;13.426;2023-03-14T01:01:51;98736.91;;;10.94;100.00
56928;BME280;60850;52.502;13.426;2023-03-14T01:04:18;98725.66;;;10.89;100.00
56928;BME280;60850;52.502;13.426;2023-03-14T01:06:46;98726.41;;;10.91;100.00
56928;BME280;60850;52.502;13.426;2023-03-14T01:09:13;98723.84;;;10.89;100.00
56928;BME280;60850;52.502;13.426;2023-03-14T01:11:41;98719.28;;;10.91;100.00
56928;BME280;60850;52.502;13.426;2023-03-14T01:14:12;98735.63;;;10.85;100.00
56928;BME280;60850;52.502;13.426;2023-03-14T01:16:39;98726.88;;;10.83;100.00
56928;BME280;60850;52.502;13.426;2023-03-14T01:19:06;98740.41;;;10.80;100.00
56928;BME280;60850;52.502;13.426;2023-03-14T01:21:34;98751.16;;;10.79;100.00
56928;BME280;60850;52.502;13.426;2023-03-14T01:24:05;98769.88;;;10.77;100.00
56928;BME280;60850;52.502;13.426;2023-03-14T01:26:33;98795.41;;;10.81;100.00
56928;BME280;60850;52.502;13.426;2023-03-14T01:29:01;98800.16;;;10.76;100.00
56928;BME280;60850;52.502;13.426;2023-03-14T01:31:28;98775.56;;;10.71;100.00
56928;BME280;60850;52.502;13.426;2023-03-14T01:33:56;98796.53;;;10.77;100.00
56928;BME280;60850;52.502;13.426;2023-03-14T01:36:22;98800.00;;;10.79;100.00
56928;BME280;60850;52.502;13.426;2023-03-14T01:38:50;98793.63;;;10.82;100.00
56928;BME280;60850;52.502;13.426;2023-03-14T01:41:20;98798.03;;;10.97;100.00
56928;BME280;60850;52.502;13.426;2023-03-14T01:43:48;98800.09;;;11.08;100.00
56928;BME280;60850;52.502;13.426;2023-03-14T01:46:21;98808.56;;;11.14;100.00
56928;BME280;60850;52.502;13.426;2023-03-14T01:49:02;98809.06;;;11.21;100.00
56928;BME280;60850;52.502;13.426;2023-03-14T01:51:34;98816.28;;;11.19;100.00
56928;BME280;60850;52.502;13.426;2023-03-14T01:54:08;98823.16;;;11.23;100.00
56928;BME280;60850;52.502;13.426;2023-03-14T01:56:39;98820.41;;;11.24;100.00
56928;BME280;60850;52.502;13.426;2023-03-14T01:59:10;98807.75;;;11.28;100.00
56928;BME280;60850;52.502;13.426;2023-03-14T02:01:39;98806.97;;;11.26;100.00
56928;BME280;60850;52.502;13.426;2023-03-14T02:04:09;98798.97;;;11.26;100.00
56928;BME280;60850;52.502;13.426;2023-03-14T02:06:44;98791.31;;;11.20;100.00
56928;BME280;60850;52.502;13.426;2023-03-14T02:09:14;98786.44;;;11.12;100.00
56928;BME280;60850;52.502;13.426;2023-03-14T02:11:43;98779.78;;;11.05;100.00
56928;BME280;60850;52.502;13.426;2023-03-14T02:14:19;98772.91;;;11.01;100.00
56928;BME280;60850;52.502;13.426;2023-03-14T02:16:48;98776.81;;;10.95;100.00
56928;BME280;60850;52.502;13.426;2023-03-14T02:19:18;98760.22;;;10.90;100.00
56928;BME280;60850;52.502;13.426;2023-03-14T02:21:53;98776.56;;;10.84;100.00
56928;BME280;60850;52.502;13.426;2023-03-14T02:24:27;98767.81;;;10.82;100.00
56928;BME280;60850;52.502;13.426;2023-03-14T02:27:10;98765.41;;;10.78;100.00
56928;BME280;60850;52.502;13.426;2023-03-14T02:29:43;98765.25;;;10.81;100.00
56928;BME280;60850;52.502;13.426;2023-03-14T02:32:12;98765.06;;;10.84;100.00
56928;BME280;60850;52.502;13.426;2023-03-14T02:34:40;98769.38;;;10.86;100.00
56928;BME280;60850;52.502;13.426;2023-03-14T02:37:09;98766.34;;;10.92;100.00
56928;BME280;60850;52.502;13.426;2023-03-14T02:39:39;98767.09;;;10.94;100.00
56928;BME280;60850;52.502;13.426;2023-03-14T02:42:16;98756.94;;;11.01;100.00
56928;BME280;60850;52.502;13.426;2023-03-14T02:44:52;98751.22;;;11.07;100.00
56928;BME280;60850;52.502;13.426;2023-03-14T02:47:23;98758.19;;;11.10;100.00
56928;BME280;60850;52.502;13.426;2023-03-14T02:49:53;98747.41;;;11.11;100.00
56928;BME280;60850;52.502;13.426;2023-03-14T02:52:24;98745.09;;;11.05;100.00
56928;BME280;60850;52.502;13.426;2023-03-14T02:54:51;98738.16;;;11.03;100.00
56928;BME280;60850;52.502;13.426;2023-03-14T02:57:19;98727.75;;;10.98;100.00
56928;BME280;60850;52.502;13.426;2023-03-14T02:59:46;98720.72;;;10.97;100.00
56928;BME280;60850;52.502;13.426;2023-03-14T03:02:13;98716.72;;;10.90;100.00
56928;BME280;60850;52.502;13.426;2023-03-14T03:04:40;98713.09;;;10.91;100.00
56928;BME280;60850;52.502;13.426;2023-03-14T03:07:07;98704.34;;;10.89;100.00
56928;BME280;60850;52.502;13.426;2023-03-14T03:09:34;98701.06;;;10.84;100.00
56928;BME280;60850;52.502;13.426;2023-03-14T03:12:01;98693.44;;;10.78;100.00
56928;BME280;60850;52.502;13.426;2023-03-14T03:14:29;98675.09;;;10.73;100.00
56928;BME280;60850;52.502;13.426;2023-03-14T03:16:56;98672.69;;;10.68;100.00
56928;BME280;60850;52.502;13.426;2023-03-14T03:19:23;98662.28;;;10.64;100.00
56928;BME280;60850;52.502;13.426;2023-03-14T03:21:50;98669.63;;;10.60;100.00
56928;BME280;60850;52.502;13.426;2023-03-14T03:24:17;98666.97;;;10.60;100.00
56928;BME280;60850;52.502;13.426;2023-03-14T03:26:44;98669.88;;;10.56;100.00
56928;BME280;60850;52.502;13.426;2023-03-14T03:29:11;98672.50;;;10.57;100.00
56928;BME280;60850;52.502;13.426;2023-03-14T03:31:39;98689.50;;;10.55;100.00
56928;BME280;60850;52.502;13.426;2023-03-14T03:34:07;98700.50;;;10.49;100.00
56928;BME280;60850;52.502;13.426;2023-03-14T03:36:34;98681.09;;;10.47;100.00
56928;BME280;60850;52.502;13.426;2023-03-14T03:39:01;98695.19;;;10.49;100.00
56928;BME280;60850;52.502;13.426;2023-03-14T03:41:28;98691.16;;;10.41;100.00
56928;BME280;60850;52.502;13.426;2023-03-14T03:43:55;98696.88;;;10.50;100.00
56928;BME280;60850;52.502;13.426;2023-03-14T03:46:22;98689.28;;;10.43;100.00
56928;BME280;60850;52.502;13.426;2023-03-14T03:48:54;98691.09;;;10.43;100.00
56928;BME280;60850;52.502;13.426;2023-03-14T03:51:20;98682.22;;;10.42;100.00
56928;BME280;60850;52.502;13.426;2023-03-14T03:53:47;98672.72;;;10.38;100.00
56928;BME280;60850;52.502;13.426;2023-03-14T03:56:15;98671.00;;;10.37;100.00
56928;BME280;60850;52.502;13.426;2023-03-14T03:58:42;98675.53;;;10.35;100.00
56928;BME280;60850;52.502;13.426;2023-03-14T04:01:09;98671.94;;;10.36;100.00
56928;BME280;60850;52.502;13.426;2023-03-14T04:03:37;98679.94;;;10.36;100.00
56928;BME280;60850;52.502;13.426;2023-03-14T04:06:08;98674.63;;;10.36;100.00
56928;BME280;60850;52.502;13.426;2023-03-14T04:08:35;98689.81;;;10.34;100.00
56928;BME280;60850;52.502;13.426;2023-03-14T04:11:03;98672.88;;;10.35;100.00
56928;BME280;60850;52.502;13.426;2023-03-14T04:13:30;98666.13;;;10.30;100.00
56928;BME280;60850;52.502;13.426;2023-03-14T04:15:57;98669.28;;;10.36;100.00
56928;BME280;60850;52.502;13.426;2023-03-14T04:18:24;98676.47;;;10.34;100.00
56928;BME280;60850;52.502;13.426;2023-03-14T04:20:51;98673.06;;;10.32;100.00
56928;BME280;60850;52.502;13.426;2023-03-14T04:23:20;98668.50;;;10.34;100.00
56928;BME280;60850;52.502;13.426;2023-03-14T04:25:49;98661.47;;;10.33;100.00
56928;BME280;60850;52.502;13.426;2023-03-14T04:28:17;98675.53;;;10.35;100.00
56928;BME280;60850;52.502;13.426;2023-03-14T04:30:43;98667.53;;;10.35;100.00
56928;BME280;60850;52.502;13.426;2023-03-14T04:33:10;98657.94;;;10.33;100.00
56928;BME280;60850;52.502;13.426;2023-03-14T04:35:42;98657.09;;;10.32;100.00
56928;BME280;60850;52.502;13.426;2023-03-14T04:38:09;98650.03;;;10.31;100.00
56928;BME280;60850;52.502;13.426;2023-03-14T04:40:38;98650.03;;;10.31;100.00
56928;BME280;60850;52.502;13.426;2023-03-14T04:43:06;98645.38;;;10.35;100.00
56928;BME280;60850;52.502;13.426;2023-03-14T04:45:33;98640.91;;;10.35;100.00
56928;BME280;60850;52.502;13.426;2023-03-14T04:48:00;98628.53;;;10.34;100.00
56928;BME280;60850;52.502;13.426;2023-03-14T04:50:26;98633.22;;;10.31;100.00
56928;BME280;60850;52.502;13.426;2023-03-14T04:52:54;98618.25;;;10.28;100.00
56928;BME280;60850;52.502;13.426;2023-03-14T04:55:21;98626.06;;;10.31;100.00
56928;BME280;60850;52.502;13.426;2023-03-14T04:57:49;98620.00;;;10.29;100.00
56928;BME280;60850;52.502;13.426;2023-03-14T05:00:16;98614.91;;;10.25;100.00
56928;BME280;60850;52.502;13.426;2023-03-14T05:02:44;98621.28;;;10.22;100.00
56928;BME280;60850;52.502;13.426;2023-03-14T05:05:11;98624.72;;;10.24;100.00
56928;BME280;60850;52.502;13.426;2023-03-14T05:07:38;98633.22;;;10.31;100.00
56928;BME280;60850;52.502;13.426;2023-03-14T05:10:05;98631.41;;;10.31;100.00
56928;BME280;60850;52.502;13.426;2023-03-14T05:12:33;98629.22;;;10.38;100.00
56928;BME280;60850;52.502;13.426;2023-03-14T05:15:01;98623.63;;;10.42;100.00
56928;BME280;60850;52.502;13.426;2023-03-14T05:17:30;98619.25;;;10.41;100.00
56928;BME280;60850;52.502;13.426;2023-03-14T05:19:56;98620.94;;;10.42;100.00
56928;BME280;60850;52.502;13.426;2023-03-14T05:22:23;98609.44;;;10.42;100.00
56928;BME280;60850;52.502;13.426;2023-03-14T05:24:50;98600.69;;;10.40;100.00
56928;BME280;60850;52.502;13.426;2023-03-14T05:27:19;98596.47;;;10.36;100.00
56928;BME280;60850;52.502;13.426;2023-03-14T05:29:46;98599.06;;;10.37;100.00
56928;BME280;60850;52.502;13.426;2023-03-14T05:32:15;98598.63;;;10.45;100.00
56928;BME280;60850;52.502;13.426;2023-03-14T05:34:42;98595.19;;;10.43;100.00
56928;BME280;60850;52.502;13.426;2023-03-14T05:37:09;98590.53;;;10.47;100.00
56928;BME280;60850;52.502;13.426;2023-03-14T05:39:35;98600.13;;;10.49;100.00
56928;BME280;60850;52.502;13.426;2023-03-14T05:42:02;98601.09;;;10.48;100.00
56928;BME280;60850;52.502;13.426;2023-03-14T05:44:29;98593.09;;;10.48;100.00
56928;BME280;60850;52.502;13.426;2023-03-14T05:46:56;98605.94;;;10.56;100.00
56928;BME280;60850;52.502;13.426;2023-03-14T05:49:25;98611.09;;;10.59;100.00
56928;BME280;60850;52.502;13.426;2023-03-14T05:51:52;98610.25;;;10.58;100.00
56928;BME280;60850;52.502;13.426;2023-03-14T05:54:19;98619.00;;;10.60;100.00
56928;BME280;60850;52.502;13.426;2023-03-14T05:56:46;98613.47;;;10.63;100.00
56928;BME280;60850;52.502;13.426;2023-03-14T05:59:12;98601.88;;;10.64;100.00
56928;BME280;60850;52.502;13.426;2023-03-14T06:01:40;98596.63;;;10.63;100.00
56928;BME280;60850;52.502;13.426;2023-03-14T06:04:07;98597.41;;;10.65;100.00
56928;BME280;60850;52.502;13.426;2023-03-14T06:06:35;98595.31;;;10.70;100.00
56928;BME280;60850;52.502;13.426;2023-03-14T06:09:02;98601.22;;;10.75;100.00
56928;BME280;60850;52.502;13.426;2023-03-14T06:11:29;98592.16;;;10.78;100.00
56928;BME280;60850;52.502;13.426;2023-03-14T06:13:56;98601.69;;;10.82;100.00
56928;BME280;60850;52.502;13.426;2023-03-14T06:16:23;98592.75;;;10.83;100.00
56928;BME280;60850;52.502;13.426;2023-03-14T06:18:50;98595.13;;;10.87;100.00
56928;BME280;60850;52.502;13.426;2023-03-14T06:21:18;98587.72;;;10.92;100.00
56928;BME280;60850;52.502;13.426;2023-03-14T06:23:46;98592.47;;;11.02;100.00
56928;BME280;60850;52.502;13.426;2023-03-14T06:26:13;98595.88;;;11.04;100.00
56928;BME280;60850;52.502;13.426;2023-03-14T06:28:40;98597.59;;;11.05;100.00
56928;BME280;60850;52.502;13.426;2023-03-14T06:31:07;98602.38;;;11.14;100.00
56928;BME280;60850;52.502;13.426;2023-03-14T06:33:34;98599.41;;;11.18;100.00
56928;BME280;60850;52.502;13.426;2023-03-14T06:36:01;98597.41;;;11.22;100.00
56928;BME280;60850;52.502;13.426;2023-03-14T06:38:28;98600.22;;;11.33;100.00
56928;BME280;60850;52.502;13.426;2023-03-14T06:40:56;98589.91;;;11.41;100.00
56928;BME280;60850;52.502;13.426;2023-03-14T06:43:23;98598.97;;;11.53;100.00
56928;BME280;60850;52.502;13.426;2023-03-14T06:45:50;98608.75;;;11.67;100.00
56928;BME280;60850;52.502;13.426;2023-03-14T06:48:17;98609.66;;;11.80;100.00
56928;BME280;60850;52.502;13.426;2023-03-14T06:50:44;98616.81;;;11.79;100.00
56928;BME280;60850;52.502;13.426;2023-03-14T06:53:11;98626.06;;;11.88;100.00
56928;BME280;60850;52.502;13.426;2023-03-14T06:55:38;98616.91;;;12.05;100.00
56928;BME280;60850;52.502;13.426;2023-03-14T06:58:06;98615.81;;;12.22;100.00
56928;BME280;60850;52.502;13.426;2023-03-14T07:00:34;98630.84;;;12.88;100.00
56928;BME280;60850;52.502;13.426;2023-03-14T07:03:01;98628.97;;;12.90;100.00
56928;BME280;60850;52.502;13.426;2023-03-14T07:05:28;98629.81;;;12.90;100.00
56928;BME280;60850;52.502;13.426;2023-03-14T07:07:55;98635.13;;;13.16;100.00
56928;BME280;60850;52.502;13.426;2023-03-14T07:10:22;98633.31;;;13.16;100.00
56928;BME280;60850;52.502;13.426;2023-03-14T07:12:49;98635.69;;;13.08;100.00
56928;BME280;60850;52.502;13.426;2023-03-14T07:15:19;98630.44;;;13.07;100.00
56928;BME280;60850;52.502;13.426;2023-03-14T07:17:46;98641.03;;;13.08;100.00
56928;BME280;60850;52.502;13.426;2023-03-14T07:20:14;98639.31;;;13.07;100.00
56928;BME280;60850;52.502;13.426;2023-03-14T07:22:41;98646.69;;;13.16;100.00
56928;BME280;60850;52.502;13.426;2023-03-14T07:25:09;98648.13;;;13.22;100.00
56928;BME280;60850;52.502;13.426;2023-03-14T07:27:37;98659.22;;;13.41;100.00
56928;BME280;60850;52.502;13.426;2023-03-14T07:30:05;98651.38;;;13.64;100.00
56928;BME280;60850;52.502;13.426;2023-03-14T07:32:34;98649.97;;;13.95;100.00
56928;BME280;60850;52.502;13.426;2023-03-14T07:35:01;98646.94;;;14.23;100.00
56928;BME280;60850;52.502;13.426;2023-03-14T07:37:28;98657.81;;;14.46;100.00
56928;BME280;60850;52.502;13.426;2023-03-14T07:39:55;98663.91;;;14.48;100.00
56928;BME280;60850;52.502;13.426;2023-03-14T07:42:21;98667.84;;;14.31;100.00
56928;BME280;60850;52.502;13.426;2023-03-14T07:44:49;98664.53;;;14.27;100.00
56928;BME280;60850;52.502;13.426;2023-03-14T07:47:16;98661.78;;;14.16;100.00
56928;BME280;60850;52.502;13.426;2023-03-14T07:49:44;98664.53;;;14.04;100.00
56928;BME280;60850;52.502;13.426;2023-03-14T07:52:11;98666.56;;;14.00;100.00
56928;BME280;60850;52.502;13.426;2023-03-14T07:54:38;98664.94;;;14.10;100.00
56928;BME280;60850;52.502;13.426;2023-03-14T07:57:05;98659.56;;;14.34;100.00
56928;BME280;60850;52.502;13.426;2023-03-14T07:59:32;98651.63;;;14.33;100.00
56928;BME280;60850;52.502;13.426;2023-03-14T08:01:59;98659.22;;;14.39;100.00
56928;BME280;60850;52.502;13.426;2023-03-14T08:04:26;98648.03;;;14.45;100.00
56928;BME280;60850;52.502;13.426;2023-03-14T08:06:55;98650.81;;;14.43;100.00
56928;BME280;60850;52.502;13.426;2023-03-14T08:09:22;98647.25;;;14.32;100.00
56928;BME280;60850;52.502;13.426;2023-03-14T08:11:49;98640.91;;;14.33;100.00
56928;BME280;60850;52.502;13.426;2023-03-14T08:14:16;98638.91;;;14.23;100.00
56928;BME280;60850;52.502;13.426;2023-03-14T08:16:43;98645.59;;;14.18;100.00
56928;BME280;60850;52.502;13.426;2023-03-14T08:19:10;98636.38;;;13.98;100.00
56928;BME280;60850;52.502;13.426;2023-03-14T08:21:37;98632.94;;;13.96;100.00
56928;BME280;60850;52.502;13.426;2023-03-14T08:24:06;98628.03;;;13.90;100.00
56928;BME280;60850;52.502;13.426;2023-03-14T08:26:33;98631.50;;;13.79;100.00
56928;BME280;60850;52.502;13.426;2023-03-14T08:29:00;98637.41;;;13.71;100.00
56928;BME280;60850;52.502;13.426;2023-03-14T08:31:28;98649.91;;;13.84;100.00
56928;BME280;60850;52.502;13.426;2023-03-14T08:33:58;98642.56;;;13.98;100.00
56928;BME280;60850;52.502;13.426;2023-03-14T08:36:25;98643.31;;;14.00;100.00
56928;BME280;60850;52.502;13.426;2023-03-14T08:38:52;98646.84;;;14.01;100.00
56928;BME280;60850;52.502;13.426;2023-03-14T08:41:20;98651.78;;;13.94;100.00
56928;BME280;60850;52.502;13.426;2023-03-14T08:43:47;98657.22;;;13.82;100.00
56928;BME280;60850;52.502;13.426;2023-03-14T08:46:14;98652.41;;;13.74;100.00
56928;BME280;60850;52.502;13.426;2023-03-14T08:48:41;98657.00;;;13.72;100.00
56928;BME280;60850;52.502;13.426;2023-03-14T08:51:10;98658.97;;;13.70;100.00
56928;BME280;60850;52.502;13.426;2023-03-14T08:53:38;98666.13;;;13.69;100.00
56928;BME280;60850;52.502;13.426;2023-03-14T08:56:06;98663.16;;;13.61;100.00
56928;BME280;60850;52.502;13.426;2023-03-14T08:58:37;98662.94;;;13.64;100.00
56928;BME280;60850;52.502;13.426;2023-03-14T09:01:04;98663.66;;;13.66;100.00
56928;BME280;60850;52.502;13.426;2023-03-14T09:03:31;98658.53;;;13.63;100.00
56928;BME280;60850;52.502;13.426;2023-03-14T09:06:02;98666.91;;;13.59;100.00
56928;BME280;60850;52.502;13.426;2023-03-14T09:08:30;98662.41;;;13.59;100.00
56928;BME280;60850;52.502;13.426;2023-03-14T09:10:57;98661.97;;;13.65;100.00
56928;BME280;60850;52.502;13.426;2023-03-14T09:13:24;98656.97;;;13.85;100.00
56928;BME280;60850;52.502;13.426;2023-03-14T09:15:52;98649.19;;;14.53;100.00
56928;BME280;60850;52.502;13.426;2023-03-14T09:18:19;98637.38;;;15.70;100.00
56928;BME280;60850;52.502;13.426;2023-03-14T09:20:46;98634.63;;;17.09;95.16
56928;BME280;60850;52.502;13.426;2023-03-14T09:23:14;98630.91;;;18.31;80.13
56928;BME280;60850;52.502;13.426;2023-03-14T09:25:40;98624.31;;;17.95;78.81
56928;BME280;60850;52.502;13.426;2023-03-14T09:28:07;98629.66;;;17.35;84.43
56928;BME280;60850;52.502;13.426;2023-03-14T09:30:34;98627.47;;;16.98;88.40
56928;BME280;60850;52.502;13.426;2023-03-14T09:33:03;98627.16;;;16.71;91.09
56928;BME280;60850;52.502;13.426;2023-03-14T09:35:29;98622.63;;;16.39;91.57
56928;BME280;60850;52.502;13.426;2023-03-14T09:37:57;98617.22;;;16.18;94.18
56928;BME280;60850;52.502;13.426;2023-03-14T09:40:24;98629.81;;;16.07;94.39
56928;BME280;60850;52.502;13.426;2023-03-14T09:42:52;98629.63;;;15.99;93.38
56928;BME280;60850;52.502;13.426;2023-03-14T09:45:25;98622.59;;;16.18;92.42
56928;BME280;60850;52.502;13.426;2023-03-14T09:47:53;98625.38;;;16.28;91.70
56928;BME280;60850;52.502;13.426;2023-03-14T09:50:22;98625.28;;;16.18;91.33
56928;BME280;60850;52.502;13.426;2023-03-14T09:52:55;98624.25;;;15.99;92.71
56928;BME280;60850;52.502;13.426;2023-03-14T09:55:22;98628.19;;;15.61;92.88
56928;BME280;60850;52.502;13.426;2023-03-14T09:57:53;98634.66;;;15.36;94.30
56928;BME280;60850;52.502;13.426;2023-03-14T10:00:24;98635.31;;;15.17;94.99
56928;BME280;60850;52.502;13.426;2023-03-14T10:02:53;98635.75;;;15.00;96.65
56928;BME280;60850;52.502;13.426;2023-03-14T10:05:25;98639.03;;;14.92;98.40
56928;BME280;60850;52.502;13.426;2023-03-14T10:07:53;98644.63;;;14.78;99.25
56928;BME280;60850;52.502;13.426;2023-03-14T10:10:22;98638.75;;;14.73;100.00
56928;BME280;60850;52.502;13.426;2023-03-14T10:12:56;98648.53;;;14.85;99.19
56928;BME280;60850;52.502;13.426;2023-03-14T10:15:25;98656.47;;;14.87;98.72
56928;BME280;60850;52.502;13.426;2023-03-14T10:17:52;98635.97;;;14.74;99.58
56928;BME280;60850;52.502;13.426;2023-03-14T10:20:29;98633.84;;;14.55;99.80
56928;BME280;60850;52.502;13.426;2023-03-14T10:23:00;98647.81;;;14.48;99.51
56928;BME280;60850;52.502;13.426;2023-03-14T10:25:29;98648.94;;;14.56;100.00
56928;BME280;60850;52.502;13.426;2023-03-14T10:27:57;98645.47;;;14.67;98.75
56928;BME280;60850;52.502;13.426;2023-03-14T10:30:30;98651.75;;;14.55;97.41
56928;BME280;60850;52.502;13.426;2023-03-14T10:33:08;98649.53;;;14.49;98.97
56928;BME280;60850;52.502;13.426;2023-03-14T10:35:36;98646.00;;;14.48;99.41
56928;BME280;60850;52.502;13.426;2023-03-14T10:38:04;98629.81;;;14.37;97.83
56928;BME280;60850;52.502;13.426;2023-03-14T10:40:32;98647.06;;;14.22;98.98
56928;BME280;60850;52.502;13.426;2023-03-14T10:43:03;98651.28;;;14.13;99.44
56928;BME280;60850;52.502;13.426;2023-03-14T10:45:33;98640.28;;;14.05;100.00
56928;BME280;60850;52.502;13.426;2023-03-14T10:48:16;98643.59;;;14.09;100.00
56928;BME280;60850;52.502;13.426;2023-03-14T10:50:53;98631.97;;;14.21;99.33
56928;BME280;60850;52.502;13.426;2023-03-14T10:53:21;98651.69;;;14.20;98.73
56928;BME280;60850;52.502;13.426;2023-03-14T10:55:48;98643.53;;;14.21;97.99
56928;BME280;60850;52.502;13.426;2023-03-14T10:58:20;98646.38;;;14.07;99.35
56928;BME280;60850;52.502;13.426;2023-03-14T11:00:51;98643.59;;;14.09;99.67
56928;BME280;60850;52.502;13.426;2023-03-14T11:03:21;98651.75;;;14.07;99.79
56928;BME280;60850;52.502;13.426;2023-03-14T11:05:53;98648.28;;;14.18;98.98
56928;BME280;60850;52.502;13.426;2023-03-14T11:08:25;98641.88;;;14.32;98.16
56928;BME280;60850;52.502;13.426;2023-03-14T11:10:57;98651.41;;;14.36;98.61
56928;BME280;60850;52.502;13.426;2023-03-14T11:13:36;98644.72;;;14.41;98.28
56928;BME280;60850;52.502;13.426;2023-03-14T11:16:09;98638.63;;;14.39;98.30
56928;BME280;60850;52.502;13.426;2023-03-14T11:19:03;98637.31;;;14.45;98.00
56928;BME280;60850;52.502;13.426;2023-03-14T11:21:41;98642.78;;;14.43;97.96
56928;BME280;60850;52.502;13.426;2023-03-14T11:24:25;98644.31;;;14.35;98.60
56928;BME280;60850;52.502;13.426;2023-03-14T11:26:58;98637.97;;;14.24;99.32
56928;BME280;60850;52.502;13.426;2023-03-14T11:29:36;98634.31;;;14.25;100.00
56928;BME280;60850;52.502;13.426;2023-03-14T11:32:12;98638.34;;;14.31;99.85
56928;BME280;60850;52.502;13.426;2023-03-14T11:34:44;98632.75;;;14.34;100.00
56928;BME280;60850;52.502;13.426;2023-03-14T11:37:17;98631.03;;;14.33;100.00
56928;BME280;60850;52.502;13.426;2023-03-14T11:39:56;98646.78;;;14.38;100.00
56928;BME280;60850;52.502;13.426;2023-03-14T11:42:26;98638.38;;;14.42;100.00
56928;BME280;60850;52.502;13.426;2023-03-14T11:44:55;98641.50;;;14.49;100.00
56928;BME280;60850;52.502;13.426;2023-03-14T11:47:26;98642.22;;;14.51;100.00
56928;BME280;60850;52.502;13.426;2023-03-14T11:49:59;98653.25;;;14.59;100.00
56928;BME280;60850;52.502;13.426;2023-03-14T11:52:30;98639.72;;;14.61;100.00
56928;BME280;60850;52.502;13.426;2023-03-14T11:55:03;98635.50;;;14.80;100.00
56928;BME280;60850;52.502;13.426;2023-03-14T11:57:32;98640.75;;;14.93;100.00
56928;BME280;60850;52.502;13.426;2023-03-14T12:00:02;98639.88;;;14.93;100.00
56928;BME280;60850;52.502;13.426;2023-03-14T12:02:38;98635.50;;;14.92;100.00
56928;BME280;60850;52.502;13.426;2023-03-14T12:05:31;98634.56;;;15.04;100.00
56928;BME280;60850;52.502;13.426;2023-03-14T12:08:22;98637.84;;;15.19;100.00
56928;BME280;60850;52.502;13.426;2023-03-14T12:10:53;98633.97;;;15.23;100.00
56928;BME280;60850;52.502;13.426;2023-03-14T12:13:28;98623.09;;;15.24;100.00
56928;BME280;60850;52.502;13.426;2023-03-14T12:15:57;98619.44;;;15.25;100.00
56928;BME280;60850;52.502;13.426;2023-03-14T12:18:27;98626.53;;;15.37;100.00
56928;BME280;60850;52.502;13.426;2023-03-14T12:20:58;98613.19;;;15.36;100.00
56928;BME280;60850;52.502;13.426;2023-03-14T12:23:35;98617.72;;;15.35;100.00
56928;BME280;60850;52.502;13.426;2023-03-14T12:26:15;98620.88;;;15.41;100.00
56928;BME280;60850;52.502;13.426;2023-03-14T12:28:43;98612.38;;;15.24;100.00
56928;BME280;60850;52.502;13.426;2023-03-14T12:31:41;98610.88;;;15.20;100.00
56928;BME280;60850;52.502;13.426;2023-03-14T12:34:29;98606.63;;;15.18;100.00
56928;BME280;60850;52.502;13.426;2023-03-14T12:37:10;98609.06;;;15.09;100.00
56928;BME280;60850;52.502;13.426;2023-03-14T12:39:47;98608.31;;;14.96;100.00
56928;BME280;60850;52.502;13.426;2023-03-14T12:42:22;98604.56;;;15.10;100.00
56928;BME280;60850;52.502;13.426;2023-03-14T12:45:15;98601.84;;;14.99;100.00
56928;BME280;60850;52.502;13.426;2023-03-14T12:47:52;98602.94;;;15.07;100.00
56928;BME280;60850;52.502;13.426;2023-03-14T12:50:35;98604.78;;;15.18;100.00